createdAt,value
2019-06-21T04:00:55.434Z,67.50
2019-06-21T04:01:55.606Z,73.13
2019-06-21T04:02:55.785Z,73.13
2019-06-21T04:03:55.968Z,73.13
2019-06-21T04:04:56.148Z,78.75
2019-06-21T04:05:56.325Z,84.38
2019-06-21T04:06:56.502Z,90.00
2019-06-21T04:07:56.680Z,95.63
2019-06-21T04:08:56.866Z,90.00
2019-06-21T04:09:57.789Z,95.63
2019-06-21T04:10:57.206Z,101.25
2019-06-21T04:11:57.384Z,101.25
2019-06-21T04:12:57.556Z,101.25
2019-06-21T04:13:57.715Z,101.25
2019-06-21T04:14:57.879Z,101.25
2019-06-21T04:15:58.053Z,101.25
2019-06-21T04:16:58.229Z,101.25
2019-06-21T04:17:58.407Z,101.25
2019-06-21T04:18:58.575Z,101.25
2019-06-21T04:19:58.790Z,106.88
2019-06-21T04:20:58.920Z,106.88
2019-06-21T04:21:59.095Z,112.50
2019-06-21T04:22:59.263Z,112.50
2019-06-21T04:23:59.478Z,118.13
2019-06-21T04:24:59.606Z,129.38
2019-06-21T04:25:59.776Z,135.00
2019-06-21T04:26:59.960Z,140.63
2019-06-21T04:28:00.141Z,135.00
2019-06-21T04:29:00.266Z,140.63
2019-06-21T04:30:00.452Z,146.25
2019-06-21T04:31:00.615Z,140.63
2019-06-21T04:32:00.786Z,135.00
2019-06-21T04:33:01.147Z,135.00
2019-06-21T04:34:01.155Z,129.38
2019-06-21T04:35:01.333Z,118.13
2019-06-21T04:36:01.508Z,118.13
2019-06-21T04:37:01.683Z,118.13
2019-06-21T04:38:01.869Z,123.75
2019-06-21T04:39:02.029Z,123.75
2019-06-21T04:40:16.758Z,129.38
2019-06-21T04:41:02.347Z,135.00
2019-06-21T04:42:02.541Z,140.63
2019-06-21T04:43:02.726Z,151.88
2019-06-21T04:44:02.848Z,163.13
2019-06-21T04:45:03.032Z,168.75
2019-06-21T04:46:03.234Z,174.38
2019-06-21T04:47:03.393Z,180.00
2019-06-21T04:48:03.557Z,180.00
2019-06-21T04:49:03.736Z,174.38
2019-06-21T04:50:03.891Z,168.75
2019-06-21T04:51:04.059Z,168.75
2019-06-21T04:52:04.208Z,168.75
2019-06-21T04:53:04.364Z,168.75
2019-06-21T04:54:04.543Z,168.75
2019-06-21T04:55:04.707Z,174.38
2019-06-21T04:56:04.863Z,191.25
2019-06-21T04:57:05.030Z,208.13
2019-06-21T04:58:06.850Z,225.00
2019-06-21T04:59:05.386Z,236.25
2019-06-21T05:00:05.575Z,247.50
2019-06-21T05:01:05.728Z,264.38
2019-06-21T05:02:05.902Z,264.38
2019-06-21T05:03:06.078Z,264.38
2019-06-21T05:04:06.254Z,253.13
2019-06-21T05:05:06.425Z,247.50
2019-06-21T05:06:06.604Z,241.88
2019-06-21T05:07:06.807Z,236.25
2019-06-21T05:08:06.991Z,236.25
2019-06-21T05:09:07.128Z,253.13
2019-06-21T05:10:07.306Z,264.38
2019-06-21T05:11:07.451Z,270.00
2019-06-21T05:12:07.594Z,292.50
2019-06-21T05:13:07.780Z,309.38
2019-06-21T05:14:07.953Z,326.25
2019-06-21T05:15:12.358Z,348.75
2019-06-21T05:16:08.265Z,365.63
2019-06-21T05:17:08.441Z,371.25
2019-06-21T05:18:08.607Z,365.63
2019-06-21T05:19:08.772Z,360.00
2019-06-21T05:20:08.988Z,365.63
2019-06-21T05:21:09.100Z,371.25
2019-06-21T05:22:09.271Z,371.25
2019-06-21T05:23:09.435Z,388.13
2019-06-21T05:24:10.082Z,399.38
2019-06-21T05:25:09.800Z,427.50
2019-06-21T05:26:09.928Z,444.38
2019-06-21T05:27:10.154Z,438.75
2019-06-21T05:28:10.297Z,438.75
2019-06-21T05:29:10.422Z,461.25
2019-06-21T05:30:10.614Z,472.50
2019-06-21T05:31:10.775Z,444.38
2019-06-21T05:32:10.936Z,455.63
2019-06-21T05:33:11.134Z,450.00
2019-06-21T05:34:11.312Z,410.63
2019-06-21T05:35:11.471Z,388.13
2019-06-21T05:36:11.613Z,376.88
2019-06-21T05:37:11.768Z,360.00
2019-06-21T05:38:11.952Z,343.13
2019-06-21T05:39:12.102Z,326.25
2019-06-21T05:40:12.265Z,315.00
2019-06-21T05:41:12.444Z,309.38
2019-06-21T05:42:12.610Z,292.50
2019-06-21T05:43:12.784Z,275.63
2019-06-21T05:44:12.960Z,281.25
2019-06-21T05:45:13.130Z,292.50
2019-06-21T05:46:13.297Z,303.75
2019-06-21T05:47:13.471Z,303.75
2019-06-21T05:48:13.638Z,309.38
2019-06-21T05:49:13.879Z,331.88
2019-06-21T05:50:14.004Z,343.13
2019-06-21T05:51:14.173Z,326.25
2019-06-21T05:52:14.354Z,326.25
2019-06-21T05:53:14.518Z,320.63
2019-06-21T05:54:14.692Z,309.38
2019-06-21T05:55:14.868Z,292.50
2019-06-21T05:56:15.043Z,275.63
2019-06-21T05:57:15.228Z,270.00
2019-06-21T05:58:15.404Z,275.63
2019-06-21T05:59:15.559Z,281.25
2019-06-21T06:00:15.733Z,292.50
2019-06-21T06:01:15.905Z,303.75
2019-06-21T06:02:16.064Z,315.00
2019-06-21T06:03:16.239Z,326.25
2019-06-21T06:04:16.411Z,337.50
2019-06-21T06:05:16.605Z,337.50
2019-06-21T06:06:16.752Z,320.63
2019-06-21T06:07:16.927Z,292.50
2019-06-21T06:08:17.096Z,264.38
2019-06-21T06:09:17.260Z,253.13
2019-06-21T06:10:17.429Z,253.13
2019-06-21T06:11:17.600Z,247.50
2019-06-21T06:12:17.911Z,247.50
2019-06-21T06:13:17.938Z,247.50
2019-06-21T06:14:18.102Z,247.50
2019-06-21T06:15:18.281Z,253.13
2019-06-21T06:16:18.450Z,264.38
2019-06-21T06:17:22.279Z,303.75
2019-06-21T06:18:18.791Z,320.63
2019-06-21T06:19:18.970Z,281.25
2019-06-21T06:20:19.144Z,247.50
2019-06-21T06:21:19.314Z,236.25
2019-06-21T06:22:19.475Z,208.13
2019-06-21T06:23:19.668Z,202.50
2019-06-21T06:24:19.853Z,196.88
2019-06-21T06:25:20.081Z,191.25
2019-06-21T06:26:20.220Z,185.63
2019-06-21T06:27:20.399Z,174.38
2019-06-21T06:28:20.558Z,185.63
2019-06-21T06:29:20.692Z,191.25
2019-06-21T06:30:20.924Z,225.00
2019-06-21T06:31:21.030Z,292.50
2019-06-21T06:32:21.227Z,320.63
2019-06-21T06:33:21.354Z,348.75
2019-06-21T06:34:21.535Z,331.88
2019-06-21T06:35:21.691Z,343.13
2019-06-21T06:36:21.886Z,371.25
2019-06-21T06:37:22.031Z,410.63
2019-06-21T06:38:22.200Z,450.00
2019-06-21T06:39:22.366Z,478.13
2019-06-21T06:40:22.546Z,489.38
2019-06-21T06:41:23.204Z,478.13
2019-06-21T06:42:22.912Z,528.75
2019-06-21T06:43:23.054Z,540.00
2019-06-21T06:44:23.225Z,601.88
2019-06-21T06:45:23.396Z,579.38
2019-06-21T06:46:23.568Z,613.13
2019-06-21T06:47:23.739Z,601.88
2019-06-21T06:48:23.903Z,646.88
2019-06-21T06:49:24.080Z,630.00
2019-06-21T06:50:24.254Z,618.75
2019-06-21T06:51:24.433Z,596.25
2019-06-21T06:52:24.614Z,534.38
2019-06-21T06:53:24.749Z,528.75
2019-06-21T06:54:24.912Z,540.00
2019-06-21T06:55:25.078Z,540.00
2019-06-21T06:56:25.261Z,573.75
2019-06-21T06:57:25.451Z,579.38
2019-06-21T06:58:25.599Z,601.88
2019-06-21T06:59:25.766Z,618.75
2019-06-21T07:00:25.932Z,613.13
2019-06-21T07:01:26.110Z,607.50
2019-06-21T07:02:26.269Z,613.13
2019-06-21T07:03:26.442Z,590.63
2019-06-21T07:04:26.614Z,573.75
2019-06-21T07:05:26.792Z,579.38
2019-06-21T07:06:27.480Z,590.63
2019-06-21T07:07:27.153Z,596.25
2019-06-21T07:08:27.321Z,596.25
2019-06-21T07:09:27.495Z,680.63
2019-06-21T07:10:27.671Z,697.50
2019-06-21T07:11:38.471Z,725.63
2019-06-21T07:12:28.010Z,720.00
2019-06-21T07:13:30.766Z,736.88
2019-06-21T07:14:28.358Z,753.75
2019-06-21T07:15:28.556Z,765.00
2019-06-21T07:16:28.715Z,765.00
2019-06-21T07:17:28.886Z,781.88
2019-06-21T07:18:29.065Z,798.75
2019-06-21T07:19:29.252Z,770.63
2019-06-21T07:20:29.417Z,765.00
2019-06-21T07:21:29.600Z,725.63
2019-06-21T07:22:29.798Z,708.75
2019-06-21T07:23:29.938Z,686.25
2019-06-21T07:24:30.107Z,680.63
2019-06-21T07:25:30.286Z,725.63
2019-06-21T07:26:30.462Z,703.13
2019-06-21T07:27:30.612Z,658.13
2019-06-21T07:28:30.781Z,703.13
2019-06-21T07:29:30.954Z,635.63
2019-06-21T07:30:31.115Z,663.75
2019-06-21T07:31:31.281Z,697.50
2019-06-21T07:32:31.444Z,742.50
2019-06-21T07:33:31.620Z,843.75
2019-06-21T07:34:31.796Z,849.38
2019-06-21T07:35:31.984Z,826.88
2019-06-21T07:36:32.139Z,810.00
2019-06-21T07:37:32.311Z,804.38
2019-06-21T07:38:32.486Z,781.88
2019-06-21T07:39:32.664Z,736.88
2019-06-21T07:40:32.837Z,697.50
2019-06-21T07:41:33.009Z,686.25
2019-06-21T07:42:33.185Z,680.63
2019-06-21T07:43:33.364Z,697.50
2019-06-21T07:44:33.543Z,703.13
2019-06-21T07:45:33.730Z,675.00
2019-06-21T07:46:33.898Z,691.88
2019-06-21T07:47:34.078Z,663.75
2019-06-21T07:48:34.244Z,652.50
2019-06-21T07:49:34.426Z,573.75
2019-06-21T07:50:34.597Z,613.13
2019-06-21T07:51:34.773Z,523.13
2019-06-21T07:52:34.946Z,562.50
2019-06-21T07:53:35.143Z,630.00
2019-06-21T07:54:35.304Z,669.38
2019-06-21T07:55:35.467Z,759.38
2019-06-21T07:56:35.662Z,748.13
2019-06-21T07:57:35.807Z,669.38
2019-06-21T07:58:35.972Z,776.25
2019-06-21T07:59:36.191Z,810.00
2019-06-21T08:00:36.331Z,838.13
2019-06-21T08:01:36.485Z,877.50
2019-06-21T08:02:36.694Z,905.63
2019-06-21T08:03:36.829Z,922.50
2019-06-21T08:04:37.008Z,922.50
2019-06-21T08:05:37.139Z,855.00
2019-06-21T08:06:37.296Z,905.63
2019-06-21T08:07:37.478Z,961.88
2019-06-21T08:08:37.647Z,1096.88
2019-06-21T08:09:37.882Z,1080.00
2019-06-21T08:10:38.029Z,1102.50
2019-06-21T08:11:38.181Z,1080.00
2019-06-21T08:12:38.365Z,995.63
2019-06-21T08:13:38.536Z,894.38
2019-06-21T08:14:38.735Z,855.00
2019-06-21T08:15:38.887Z,911.25
2019-06-21T08:16:39.063Z,849.38
2019-06-21T08:17:39.240Z,826.88
2019-06-21T08:18:39.421Z,793.13
2019-06-21T08:19:39.594Z,776.25
2019-06-21T08:20:39.764Z,720.00
2019-06-21T08:21:39.941Z,697.50
2019-06-21T08:22:40.135Z,663.75
2019-06-21T08:23:40.284Z,680.63
2019-06-21T08:24:40.469Z,691.88
2019-06-21T08:25:40.646Z,731.25
2019-06-21T08:26:40.823Z,787.50
2019-06-21T08:27:41.002Z,860.63
2019-06-21T08:28:41.178Z,1091.25
2019-06-21T08:29:41.355Z,1198.13
2019-06-21T08:30:41.531Z,1113.75
2019-06-21T08:31:41.708Z,995.63
2019-06-21T08:32:41.885Z,832.50
2019-06-21T08:33:42.059Z,669.38
2019-06-21T08:34:42.234Z,675.00
2019-06-21T08:35:42.405Z,680.63
2019-06-21T08:36:42.574Z,703.13
2019-06-21T08:37:42.755Z,708.75
2019-06-21T08:38:42.936Z,731.25
2019-06-21T08:39:43.111Z,736.88
2019-06-21T08:40:43.283Z,720.00
2019-06-21T08:41:43.464Z,714.38
2019-06-21T08:42:43.639Z,658.13
2019-06-21T08:43:43.811Z,596.25
2019-06-21T08:44:43.976Z,568.13
2019-06-21T08:45:44.169Z,556.88
2019-06-21T08:46:44.330Z,562.50
2019-06-21T08:47:44.519Z,568.13
2019-06-21T08:48:44.681Z,556.88
2019-06-21T08:49:44.855Z,540.00
2019-06-21T08:50:45.075Z,523.13
2019-06-21T08:51:45.219Z,506.25
2019-06-21T08:52:45.391Z,500.63
2019-06-21T08:53:45.578Z,506.25
2019-06-21T08:54:45.757Z,500.63
2019-06-21T08:55:45.932Z,506.25
2019-06-21T08:56:46.111Z,523.13
2019-06-21T08:57:46.287Z,545.63
2019-06-21T08:58:46.462Z,562.50
2019-06-21T08:59:46.641Z,573.75
2019-06-21T09:00:46.829Z,590.63
2019-06-21T09:01:46.998Z,618.75
2019-06-21T09:02:47.177Z,641.25
2019-06-21T09:03:47.363Z,652.50
2019-06-21T09:04:47.533Z,669.38
2019-06-21T09:05:47.708Z,686.25
2019-06-21T09:06:47.886Z,703.13
2019-06-21T09:07:48.062Z,725.63
2019-06-21T09:08:48.237Z,748.13
2019-06-21T09:09:48.438Z,781.88
2019-06-21T09:10:48.596Z,815.63
2019-06-21T09:11:48.775Z,855.00
2019-06-21T09:12:49.377Z,871.88
2019-06-21T09:13:49.126Z,860.63
2019-06-21T09:14:49.307Z,877.50
2019-06-21T09:15:49.481Z,900.00
2019-06-21T09:16:49.659Z,928.13
2019-06-21T09:17:49.838Z,922.50
2019-06-21T09:18:50.025Z,883.13
2019-06-21T09:19:50.194Z,832.50
2019-06-21T09:20:50.370Z,810.00
2019-06-21T09:21:50.578Z,804.38
2019-06-21T09:22:50.721Z,815.63
2019-06-21T09:23:50.898Z,888.75
2019-06-21T09:24:51.074Z,1035.00
2019-06-21T09:25:51.250Z,1248.75
2019-06-21T09:26:51.430Z,1243.13
2019-06-21T09:27:51.629Z,1153.13
2019-06-21T09:28:51.787Z,1158.75
2019-06-21T09:29:51.962Z,1186.88
2019-06-21T09:30:52.142Z,1108.13
2019-06-21T09:31:52.349Z,1147.50
2019-06-21T09:32:52.490Z,990.00
2019-06-21T09:33:52.664Z,1001.25
2019-06-21T09:34:52.837Z,860.63
2019-06-21T09:35:53.016Z,838.13
2019-06-21T09:36:53.191Z,939.38
2019-06-21T09:37:53.367Z,916.88
2019-06-21T09:38:53.547Z,821.25
2019-06-21T09:39:53.718Z,669.38
2019-06-21T09:40:53.894Z,720.00
2019-06-21T09:41:54.071Z,742.50
2019-06-21T09:43:07.228Z,838.13
2019-06-21T09:43:54.426Z,787.50
2019-06-21T09:44:54.604Z,703.13
2019-06-21T09:45:54.780Z,675.00
2019-06-21T09:46:54.958Z,686.25
2019-06-21T09:47:55.139Z,691.88
2019-06-21T09:48:55.317Z,736.88
2019-06-21T09:49:55.494Z,804.38
2019-06-21T09:50:55.668Z,877.50
2019-06-21T09:51:55.842Z,995.63
2019-06-21T09:52:56.018Z,1023.75
2019-06-21T09:53:57.092Z,1141.88
2019-06-21T09:54:56.384Z,1119.38
2019-06-21T09:55:56.565Z,1125.00
2019-06-21T09:56:56.791Z,838.13
2019-06-21T09:57:56.944Z,832.50
2019-06-21T09:58:59.861Z,866.25
2019-06-21T09:59:57.275Z,950.63
2019-06-21T10:00:57.455Z,1170.00
2019-06-21T10:01:57.633Z,1170.00
2019-06-21T10:02:59.140Z,1198.13
2019-06-21T10:04:00.354Z,1057.50
2019-06-21T10:04:58.945Z,1023.75
2019-06-21T10:05:59.159Z,1046.25
2019-06-21T10:06:59.958Z,1153.13
2019-06-21T10:08:00.164Z,1226.25
2019-06-21T10:09:00.016Z,1327.50
2019-06-21T10:10:00.554Z,1282.50
2019-06-21T10:10:59.935Z,2137.50
2019-06-21T10:11:59.853Z,2458.13
2019-06-21T10:13:00.948Z,1445.63
2019-06-21T10:14:01.937Z,2025.00
2019-06-21T10:15:01.648Z,1428.75
2019-06-21T10:16:02.015Z,2390.63
2019-06-21T10:17:03.887Z,2739.38
2019-06-21T10:18:01.348Z,1428.75
2019-06-21T10:19:01.646Z,1350.00
2019-06-21T10:20:02.214Z,2767.50
2019-06-21T10:21:02.422Z,2806.88
2019-06-21T10:22:02.921Z,2806.88
2019-06-21T10:23:03.253Z,1963.13
2019-06-21T10:24:02.139Z,2165.63
2019-06-21T10:25:02.055Z,2936.25
2019-06-21T10:26:02.524Z,2728.13
2019-06-21T10:27:03.648Z,2930.63
2019-06-21T10:28:04.363Z,2722.50
2019-06-21T10:29:04.702Z,1220.63
2019-06-21T10:30:04.632Z,1378.13
2019-06-21T10:31:04.007Z,1243.13
2019-06-21T10:32:03.309Z,1890.00
2019-06-21T10:33:03.936Z,2632.50
2019-06-21T10:34:04.579Z,2070.00
2019-06-21T10:35:04.788Z,1023.75
2019-06-21T10:36:05.133Z,1136.25
2019-06-21T10:37:04.924Z,1096.88
2019-06-21T10:40:35.767Z,1029.38
2019-06-21T10:41:35.947Z,1861.88
2019-06-21T10:42:36.122Z,2176.88
2019-06-21T10:43:42.645Z,1620.00
2019-06-21T10:44:36.481Z,1175.63
2019-06-21T10:45:36.650Z,1074.38
2019-06-21T10:46:36.830Z,1029.38
2019-06-21T10:47:37.011Z,1108.13
2019-06-21T10:48:37.188Z,1108.13
2019-06-21T10:49:37.375Z,871.88
2019-06-21T10:50:37.543Z,888.75
2019-06-21T10:51:37.719Z,1153.13
2019-06-21T10:52:37.895Z,1918.13
2019-06-21T10:53:38.069Z,2919.38
2019-06-21T10:54:38.266Z,3195.00
2019-06-21T10:55:38.449Z,3240.00
2019-06-21T10:56:38.593Z,3262.50
2019-06-21T10:57:38.773Z,3178.13
2019-06-21T10:58:38.959Z,2913.75
2019-06-21T10:59:39.133Z,3211.88
2019-06-21T11:00:39.313Z,3301.88
2019-06-21T11:01:39.492Z,3161.25
2019-06-21T11:02:39.780Z,2053.13
2019-06-21T11:03:39.849Z,1192.50
2019-06-21T11:04:40.028Z,1096.88
2019-06-21T11:05:40.205Z,1051.88
2019-06-21T11:06:40.404Z,1012.50
2019-06-21T11:07:40.559Z,978.75
2019-06-21T11:08:40.740Z,933.75
2019-06-21T11:09:40.931Z,911.25
2019-06-21T11:10:41.096Z,911.25
2019-06-21T11:11:41.306Z,950.63
2019-06-21T11:12:41.451Z,961.88
2019-06-21T11:13:54.676Z,945.00
2019-06-21T11:14:41.807Z,961.88
2019-06-21T11:15:41.995Z,973.13
2019-06-21T11:16:42.172Z,1018.13
2019-06-21T11:17:42.349Z,2553.75
2019-06-21T11:18:42.526Z,3538.13
2019-06-21T11:19:45.891Z,3504.38
2019-06-21T11:20:42.901Z,2885.63
2019-06-21T11:21:43.076Z,2553.75
2019-06-21T11:22:43.252Z,1108.13
2019-06-21T11:23:43.434Z,961.88
2019-06-21T11:24:43.613Z,973.13
2019-06-21T11:25:43.789Z,2728.13
2019-06-21T11:26:43.964Z,3622.50
2019-06-21T11:27:44.147Z,2705.63
2019-06-21T11:28:44.326Z,3526.88
2019-06-21T11:29:44.502Z,3661.88
2019-06-21T11:30:44.683Z,2626.88
2019-06-21T11:31:46.239Z,967.50
2019-06-21T11:32:45.049Z,905.63
2019-06-21T11:33:45.221Z,945.00
2019-06-21T11:34:45.405Z,1063.13
2019-06-21T11:35:45.581Z,3628.13
2019-06-21T11:36:45.756Z,3487.50
2019-06-21T11:37:45.938Z,3532.50
2019-06-21T11:38:46.117Z,3481.88
2019-06-21T11:39:46.295Z,3521.25
2019-06-21T11:40:46.476Z,3594.38
2019-06-21T11:41:46.658Z,3673.13
2019-06-21T11:42:46.832Z,3763.13
2019-06-21T11:43:47.014Z,1479.38
2019-06-21T11:45:02.093Z,3690.00
2019-06-21T11:45:47.373Z,3543.75
2019-06-21T11:46:47.553Z,2323.13
2019-06-21T11:47:47.733Z,2700.00
2019-06-21T11:48:47.916Z,3684.38
2019-06-21T11:49:48.091Z,1001.25
2019-06-21T11:50:48.277Z,945.00
2019-06-21T11:51:48.453Z,905.63
2019-06-21T11:52:48.628Z,928.13
2019-06-21T11:53:48.811Z,1113.75
2019-06-21T11:54:48.993Z,3256.88
2019-06-21T11:55:49.174Z,984.38
2019-06-21T11:56:49.354Z,1130.63
2019-06-21T11:57:49.538Z,1350.00
2019-06-21T11:58:49.709Z,1125.00
2019-06-21T11:59:49.921Z,1091.25
2019-06-21T12:00:50.073Z,1136.25
2019-06-21T12:01:50.248Z,1681.88
2019-06-21T12:02:50.429Z,3678.75
2019-06-21T12:03:50.607Z,3346.88
2019-06-21T12:04:50.802Z,3757.50
2019-06-21T12:05:51.045Z,3706.88
2019-06-21T12:06:51.167Z,3757.50
2019-06-21T12:07:51.473Z,1631.25
2019-06-21T12:11:23.280Z,1125.00
2019-06-21T12:12:23.464Z,3819.38
2019-06-21T12:13:23.637Z,1237.50
2019-06-21T12:14:33.024Z,1271.25
2019-06-21T12:15:24.001Z,3886.88
2019-06-21T12:16:24.176Z,1957.50
2019-06-21T12:17:24.353Z,3931.88
2019-06-21T12:18:24.532Z,3864.38
2019-06-21T12:19:24.722Z,2199.38
2019-06-21T12:20:24.885Z,4021.88
2019-06-21T12:21:25.065Z,3577.50
2019-06-21T12:22:25.244Z,1591.88
2019-06-21T12:23:32.816Z,2418.75
2019-06-21T12:24:25.604Z,3538.13
2019-06-21T12:25:25.788Z,1046.25
2019-06-21T12:26:25.967Z,2812.50
2019-06-21T12:27:26.152Z,956.25
2019-06-21T12:28:26.332Z,804.38
2019-06-21T12:29:29.929Z,708.75
2019-06-21T12:30:26.692Z,691.88
2019-06-21T12:31:26.873Z,624.38
2019-06-21T12:32:27.064Z,601.88
2019-06-21T12:33:27.235Z,585.00
2019-06-21T12:34:28.340Z,607.50
2019-06-21T12:35:27.596Z,618.75
2019-06-21T12:36:27.780Z,703.13
2019-06-21T12:37:27.960Z,832.50
2019-06-21T12:38:28.146Z,883.13
2019-06-21T12:39:28.327Z,1051.88
2019-06-21T12:40:28.552Z,3729.38
2019-06-21T12:41:28.686Z,3965.63
2019-06-21T12:42:28.864Z,4005.00
2019-06-21T12:43:29.047Z,3943.13
2019-06-21T12:44:29.226Z,3926.25
2019-06-21T12:45:37.830Z,3931.88
2019-06-21T12:46:29.588Z,3892.50
2019-06-21T12:47:29.761Z,3988.13
2019-06-21T12:48:29.948Z,1631.25
2019-06-21T12:49:30.126Z,900.00
2019-06-21T12:50:30.314Z,900.00
2019-06-21T12:51:30.487Z,945.00
2019-06-21T12:52:30.667Z,933.75
2019-06-21T12:53:30.877Z,911.25
2019-06-21T12:54:31.026Z,877.50
2019-06-21T12:55:31.205Z,849.38
2019-06-21T12:56:31.386Z,798.75
2019-06-21T12:57:31.569Z,759.38
2019-06-21T12:58:31.746Z,810.00
2019-06-21T12:59:31.928Z,793.13
2019-06-21T13:00:32.114Z,798.75
2019-06-21T13:01:46.330Z,798.75
2019-06-21T13:02:32.469Z,798.75
2019-06-21T13:03:32.655Z,888.75
2019-06-21T13:04:45.784Z,1012.50
2019-06-21T13:05:33.025Z,2233.13
2019-06-21T13:06:33.196Z,4134.38
2019-06-21T13:07:33.401Z,3690.00
2019-06-21T13:08:33.558Z,3780.00
2019-06-21T13:09:33.738Z,3690.00
2019-06-21T13:10:33.914Z,3695.63
2019-06-21T13:11:34.095Z,877.50
2019-06-21T13:12:34.272Z,793.13
2019-06-21T13:13:34.452Z,843.75
2019-06-21T13:14:34.629Z,945.00
2019-06-21T13:15:34.808Z,1141.88
2019-06-21T13:16:34.986Z,1501.88
2019-06-21T13:17:35.167Z,1423.13
2019-06-21T13:18:35.339Z,1445.63
2019-06-21T13:19:35.518Z,2936.25
2019-06-21T13:20:35.701Z,4151.25
2019-06-21T13:21:35.881Z,4100.63
2019-06-21T13:22:36.063Z,3965.63
2019-06-21T13:23:36.244Z,3909.38
2019-06-21T13:24:36.421Z,3864.38
2019-06-21T13:25:36.797Z,3965.63
2019-06-21T13:26:36.786Z,3982.50
2019-06-21T13:27:36.958Z,3982.50
2019-06-21T13:28:37.139Z,3976.88
2019-06-21T13:29:37.324Z,4027.50
2019-06-21T13:30:37.501Z,4089.38
2019-06-21T13:31:37.681Z,4055.63
2019-06-21T13:32:37.862Z,3999.38
2019-06-21T13:33:38.041Z,3954.38
2019-06-21T13:34:38.223Z,3909.38
2019-06-21T13:35:38.403Z,3892.50
2019-06-21T13:36:38.586Z,3864.38
2019-06-21T13:37:38.808Z,3881.25
2019-06-21T13:38:38.951Z,3684.38
2019-06-21T13:39:39.134Z,3735.00
2019-06-21T13:40:39.316Z,3802.50
2019-06-21T13:41:39.517Z,2593.13
2019-06-21T13:42:39.676Z,1186.88
2019-06-21T13:43:39.859Z,1119.38
2019-06-21T13:44:40.041Z,1063.13
2019-06-21T13:45:40.223Z,1136.25
2019-06-21T13:46:40.409Z,3858.75
2019-06-21T13:47:40.592Z,3943.13
2019-06-21T13:48:52.339Z,4044.38
2019-06-21T13:49:40.951Z,1091.25
2019-06-21T13:50:41.136Z,1125.00
2019-06-21T13:51:41.319Z,1816.88
2019-06-21T13:52:41.501Z,939.38
2019-06-21T13:53:41.686Z,900.00
2019-06-21T13:54:41.866Z,866.25
2019-06-21T13:55:42.048Z,815.63
2019-06-21T13:56:42.233Z,821.25
2019-06-21T13:57:42.469Z,933.75
2019-06-21T13:58:42.587Z,821.25
2019-06-21T13:59:42.769Z,1996.88
2019-06-21T14:00:42.970Z,1271.25
2019-06-21T14:01:43.138Z,3785.63
2019-06-21T14:02:43.314Z,3785.63
2019-06-21T14:03:43.494Z,3785.63
2019-06-21T14:04:43.673Z,3825.00
2019-06-21T14:05:43.858Z,3858.75
2019-06-21T14:06:44.035Z,3881.25
2019-06-21T14:07:44.214Z,3791.25
2019-06-21T14:08:44.400Z,3791.25
2019-06-21T14:09:47.099Z,3757.50
2019-06-21T14:10:44.761Z,3729.38
2019-06-21T14:11:44.937Z,939.38
2019-06-21T14:12:45.123Z,961.88
2019-06-21T14:13:45.304Z,995.63
2019-06-21T14:14:45.486Z,1440.00
2019-06-21T14:15:45.669Z,2863.13
2019-06-21T14:16:45.949Z,3706.88
2019-06-21T14:17:46.036Z,3105.00
2019-06-21T14:18:46.215Z,3605.63
2019-06-21T14:19:46.397Z,3476.25
2019-06-21T14:20:46.576Z,3639.38
2019-06-21T14:21:46.762Z,3639.38
2019-06-21T14:22:46.949Z,3555.00
2019-06-21T14:23:47.121Z,3543.75
2019-06-21T14:24:47.302Z,3493.13
2019-06-21T14:25:47.483Z,3465.00
2019-06-21T14:26:47.675Z,3453.75
2019-06-21T14:27:47.853Z,3476.25
2019-06-21T14:28:48.037Z,1372.50
2019-06-21T14:29:48.209Z,3538.13
2019-06-21T14:30:48.394Z,3628.13
2019-06-21T14:31:48.587Z,3487.50
2019-06-21T14:32:48.766Z,3369.38
2019-06-21T14:33:48.948Z,2396.25
2019-06-21T14:34:49.131Z,646.88
2019-06-21T14:35:49.311Z,601.88
2019-06-21T14:36:49.494Z,573.75
2019-06-21T14:37:49.678Z,585.00
2019-06-21T14:38:49.856Z,579.38
2019-06-21T14:39:50.037Z,596.25
2019-06-21T14:40:50.218Z,697.50
2019-06-21T14:41:50.402Z,742.50
2019-06-21T14:42:50.597Z,748.13
2019-06-21T14:43:50.772Z,787.50
2019-06-21T14:44:50.942Z,804.38
2019-06-21T14:45:55.935Z,793.13
2019-06-21T14:46:51.305Z,731.25
2019-06-21T14:47:51.492Z,680.63
2019-06-21T14:48:51.665Z,630.00
2019-06-21T14:49:51.846Z,585.00
2019-06-21T14:50:52.023Z,534.38
2019-06-21T14:51:52.206Z,517.50
2019-06-21T14:52:52.388Z,489.38
2019-06-21T14:53:52.564Z,450.00
2019-06-21T14:54:52.746Z,433.13
2019-06-21T14:55:52.926Z,461.25
2019-06-21T14:56:53.103Z,478.13
2019-06-21T14:57:53.283Z,472.50
2019-06-21T14:58:53.463Z,495.00
2019-06-21T14:59:53.642Z,517.50
2019-06-21T15:00:54.832Z,534.38
2019-06-21T15:01:56.229Z,556.88
2019-06-21T15:02:55.007Z,562.50
2019-06-21T15:03:54.667Z,545.63
2019-06-21T15:04:55.947Z,517.50
2019-06-21T15:05:55.863Z,466.88
2019-06-21T15:06:56.430Z,427.50
2019-06-21T15:07:56.454Z,438.75
2019-06-21T15:08:56.373Z,461.25
2019-06-21T15:09:56.996Z,483.75
2019-06-21T15:10:56.092Z,495.00
2019-06-21T15:11:57.305Z,573.75
2019-06-21T15:13:07.825Z,1029.38
2019-06-21T15:13:57.847Z,562.50
2019-06-21T15:14:57.845Z,635.63
2019-06-21T15:16:06.054Z,1923.75
2019-06-21T15:16:58.599Z,2880.00
2019-06-21T15:17:58.130Z,776.25
2019-06-21T15:18:57.860Z,815.63
2019-06-21T15:19:58.562Z,680.63
2019-06-21T15:20:58.653Z,1215.00
2019-06-21T15:21:58.472Z,950.63
2019-06-21T15:22:59.100Z,2385.00
2019-06-21T15:23:58.336Z,2615.63
2019-06-21T15:24:58.860Z,2632.50
2019-06-21T15:25:58.745Z,2739.38
2019-06-21T15:26:59.039Z,2722.50
2019-06-21T15:28:00.195Z,2705.63
2019-06-21T15:28:59.338Z,2688.75
2019-06-21T15:30:00.119Z,2711.25
2019-06-21T15:31:00.567Z,1991.25
2019-06-21T15:32:00.116Z,2565.00
2019-06-21T15:33:00.294Z,1963.13
2019-06-21T15:34:00.280Z,624.38
2019-06-21T15:35:00.067Z,1575.00
2019-06-21T15:36:00.068Z,1226.25
2019-06-21T15:37:01.676Z,1957.50
2019-06-21T15:38:01.055Z,714.38
2019-06-21T15:39:01.888Z,1147.50
2019-06-21T15:40:01.165Z,585.00
2019-06-21T15:41:02.523Z,568.13
2019-06-21T15:42:06.418Z,551.25
2019-06-21T15:43:03.455Z,540.00
2019-06-21T15:44:03.032Z,540.00
2019-06-21T15:45:02.334Z,596.25
2019-06-21T15:46:01.857Z,1063.13
2019-06-21T15:47:02.035Z,1372.50
2019-06-21T15:48:04.744Z,585.00
2019-06-21T15:49:03.747Z,528.75
2019-06-21T15:50:04.298Z,478.13
2019-06-21T15:51:02.751Z,478.13
2019-06-21T15:52:03.125Z,483.75
2019-06-21T15:53:04.016Z,455.63
2019-06-21T15:54:05.098Z,433.13
2019-06-21T15:55:04.110Z,410.63
2019-06-21T15:56:03.845Z,371.25
2019-06-21T15:57:04.652Z,348.75
2019-06-21T15:58:04.044Z,343.13
2019-06-21T15:59:04.187Z,618.75
2019-06-21T16:00:04.976Z,371.25
2019-06-21T16:01:05.499Z,354.38
2019-06-21T16:02:04.719Z,360.00
2019-06-21T16:03:04.896Z,399.38
2019-06-21T16:04:05.072Z,455.63
2019-06-21T16:05:05.257Z,466.88
2019-06-21T16:06:05.436Z,483.75
2019-06-21T16:07:05.621Z,506.25
2019-06-21T16:08:05.783Z,489.38
2019-06-21T16:09:05.966Z,478.13
2019-06-21T16:10:06.141Z,568.13
2019-06-21T16:11:06.321Z,466.88
2019-06-21T16:12:06.498Z,466.88
2019-06-21T16:13:06.675Z,438.75
2019-06-21T16:14:06.856Z,461.25
2019-06-21T16:15:07.032Z,1006.88
2019-06-21T16:16:07.214Z,1546.88
2019-06-21T16:17:07.387Z,1631.25
2019-06-21T16:18:07.563Z,1687.50
2019-06-21T16:19:07.751Z,1698.75
2019-06-21T16:20:07.916Z,1738.13
2019-06-21T16:21:08.096Z,1681.88
2019-06-21T16:22:08.272Z,1687.50
2019-06-21T16:23:08.449Z,1141.88
2019-06-21T16:24:08.626Z,551.25
2019-06-21T16:25:08.803Z,540.00
2019-06-21T16:26:08.988Z,534.38
2019-06-21T16:27:09.163Z,607.50
2019-06-21T16:28:09.335Z,511.88